sensor_id;sensor_type;location;lat;lon;timestamp;P1;durP1;ratioP1;P2;durP2;ratioP2
64367;SDS011;50692;53.314;-6.300;2023-02-12T00:02:03;2.03;;;1.33;;
64367;SDS011;50692;53.314;-6.300;2023-02-12T00:04:48;2.37;;;1.80;;
64367;SDS011;50692;53.314;-6.300;2023-02-12T00:07:34;2.33;;;1.77;;
64367;SDS011;50692;53.314;-6.300;2023-02-12T00:10:20;3.83;;;2.10;;
64367;SDS011;50692;53.314;-6.300;2023-02-12T00:13:06;3.50;;;1.73;;
64367;SDS011;50692;53.314;-6.300;2023-02-12T00:15:52;2.70;;;1.90;;
64367;SDS011;50692;53.314;-6.300;2023-02-12T00:18:37;1.87;;;1.37;;
64367;SDS011;50692;53.314;-6.300;2023-02-12T00:21:23;3.50;;;1.47;;
64367;SDS011;50692;53.314;-6.300;2023-02-12T00:24:09;1.73;;;1.27;;
64367;SDS011;50692;53.314;-6.300;2023-02-12T00:26:55;1.53;;;1.20;;
64367;SDS011;50692;53.314;-6.300;2023-02-12T00:29:41;2.80;;;1.23;;
64367;SDS011;50692;53.314;-6.300;2023-02-12T00:32:27;1.43;;;0.87;;
64367;SDS011;50692;53.314;-6.300;2023-02-12T00:35:13;1.33;;;0.90;;
64367;SDS011;50692;53.314;-6.300;2023-02-12T00:37:58;2.17;;;1.33;;
64367;SDS011;50692;53.314;-6.300;2023-02-12T00:40:44;1.87;;;0.90;;
64367;SDS011;50692;53.314;-6.300;2023-02-12T00:43:30;2.03;;;1.20;;
64367;SDS011;50692;53.314;-6.300;2023-02-12T00:46:16;1.53;;;1.20;;
64367;SDS011;50692;53.314;-6.300;2023-02-12T00:49:02;1.93;;;1.10;;
64367;SDS011;50692;53.314;-6.300;2023-02-12T00:51:48;1.00;;;0.90;;
64367;SDS011;50692;53.314;-6.300;2023-02-12T00:54:34;1.70;;;0.90;;
64367;SDS011;50692;53.314;-6.300;2023-02-12T00:57:20;0.97;;;0.77;;
64367;SDS011;50692;53.314;-6.300;2023-02-12T01:00:06;0.67;;;0.50;;
64367;SDS011;50692;53.314;-6.300;2023-02-12T01:02:52;1.07;;;0.50;;
64367;SDS011;50692;53.314;-6.300;2023-02-12T01:05:38;1.67;;;0.87;;
64367;SDS011;50692;53.314;-6.300;2023-02-12T01:08:24;2.03;;;0.83;;
64367;SDS011;50692;53.314;-6.300;2023-02-12T01:11:11;1.70;;;0.80;;
64367;SDS011;50692;53.314;-6.300;2023-02-12T01:13:57;2.67;;;0.70;;
64367;SDS011;50692;53.314;-6.300;2023-02-12T01:16:44;1.60;;;1.30;;
64367;SDS011;50692;53.314;-6.300;2023-02-12T01:19:30;1.97;;;0.90;;
64367;SDS011;50692;53.314;-6.300;2023-02-12T01:22:15;1.30;;;1.10;;
64367;SDS011;50692;53.314;-6.300;2023-02-12T01:25:02;2.97;;;1.43;;
64367;SDS011;50692;53.314;-6.300;2023-02-12T01:27:51;2.40;;;1.53;;
64367;SDS011;50692;53.314;-6.300;2023-02-12T01:30:38;1.55;;;1.30;;
64367;SDS011;50692;53.314;-6.300;2023-02-12T01:33:23;2.47;;;1.40;;
64367;SDS011;50692;53.314;-6.300;2023-02-12T01:36:09;1.50;;;1.40;;
64367;SDS011;50692;53.314;-6.300;2023-02-12T01:38:55;2.83;;;1.40;;
64367;SDS011;50692;53.314;-6.300;2023-02-12T01:41:43;0.90;;;0.80;;
64367;SDS011;50692;53.314;-6.300;2023-02-12T01:44:30;1.30;;;0.97;;
64367;SDS011;50692;53.314;-6.300;2023-02-12T01:47:17;0.70;;;0.70;;
64367;SDS011;50692;53.314;-6.300;2023-02-12T01:50:03;1.47;;;0.67;;
64367;SDS011;50692;53.314;-6.300;2023-02-12T01:52:53;1.45;;;0.68;;
64367;SDS011;50692;53.314;-6.300;2023-02-12T01:55:42;0.67;;;0.67;;
64367;SDS011;50692;53.314;-6.300;2023-02-12T01:58:33;2.17;;;0.63;;
64367;SDS011;50692;53.314;-6.300;2023-02-12T02:01:27;2.53;;;1.03;;
64367;SDS011;50692;53.314;-6.300;2023-02-12T02:04:16;0.97;;;0.60;;
64367;SDS011;50692;53.314;-6.300;2023-02-12T02:07:06;1.57;;;1.00;;
64367;SDS011;50692;53.314;-6.300;2023-02-12T02:09:54;0.87;;;0.40;;
64367;SDS011;50692;53.314;-6.300;2023-02-12T02:12:41;0.77;;;0.50;;
64367;SDS011;50692;53.314;-6.300;2023-02-12T02:15:46;1.57;;;0.90;;
64367;SDS011;50692;53.314;-6.300;2023-02-12T02:18:42;1.30;;;0.80;;
64367;SDS011;50692;53.314;-6.300;2023-02-12T02:31:19;1.50;;;0.77;;
64367;SDS011;50692;53.314;-6.300;2023-02-12T02:37:17;0.90;;;0.60;;
64367;SDS011;50692;53.314;-6.300;2023-02-12T02:43:06;1.07;;;0.70;;
64367;SDS011;50692;53.314;-6.300;2023-02-12T02:46:01;1.20;;;0.60;;
64367;SDS011;50692;53.314;-6.300;2023-02-12T02:48:55;0.63;;;0.60;;
64367;SDS011;50692;53.314;-6.300;2023-02-12T02:51:46;0.43;;;0.43;;
64367;SDS011;50692;53.314;-6.300;2023-02-12T02:54:44;0.67;;;0.50;;
64367;SDS011;50692;53.314;-6.300;2023-02-12T02:57:51;1.97;;;0.53;;
64367;SDS011;50692;53.314;-6.300;2023-02-12T03:00:43;0.97;;;0.67;;
64367;SDS011;50692;53.314;-6.300;2023-02-12T03:06:56;1.30;;;0.70;;
64367;SDS011;50692;53.314;-6.300;2023-02-12T03:09:55;0.60;;;0.60;;
64367;SDS011;50692;53.314;-6.300;2023-02-12T03:12:53;1.60;;;0.90;;
64367;SDS011;50692;53.314;-6.300;2023-02-12T03:15:49;0.88;;;0.80;;
64367;SDS011;50692;53.314;-6.300;2023-02-12T03:18:43;1.03;;;0.80;;
64367;SDS011;50692;53.314;-6.300;2023-02-12T03:21:36;0.90;;;0.80;;
64367;SDS011;50692;53.314;-6.300;2023-02-12T03:24:39;2.03;;;0.70;;
64367;SDS011;50692;53.314;-6.300;2023-02-12T03:27:33;1.63;;;0.87;;
64367;SDS011;50692;53.314;-6.300;2023-02-12T03:30:40;1.27;;;0.87;;
64367;SDS011;50692;53.314;-6.300;2023-02-12T03:33:35;1.00;;;0.70;;
64367;SDS011;50692;53.314;-6.300;2023-02-12T03:45:54;1.30;;;0.93;;
64367;SDS011;50692;53.314;-6.300;2023-02-12T03:48:58;1.33;;;0.67;;
64367;SDS011;50692;53.314;-6.300;2023-02-12T03:51:48;1.90;;;0.90;;
64367;SDS011;50692;53.314;-6.300;2023-02-12T03:54:34;1.30;;;0.90;;
64367;SDS011;50692;53.314;-6.300;2023-02-12T03:57:22;0.73;;;0.60;;
64367;SDS011;50692;53.314;-6.300;2023-02-12T04:00:16;0.77;;;0.60;;
64367;SDS011;50692;53.314;-6.300;2023-02-12T04:03:05;1.47;;;1.00;;
64367;SDS011;50692;53.314;-6.300;2023-02-12T04:05:52;1.53;;;0.70;;
64367;SDS011;50692;53.314;-6.300;2023-02-12T04:08:37;1.30;;;0.70;;
64367;SDS011;50692;53.314;-6.300;2023-02-12T04:15:07;2.20;;;0.90;;
64367;SDS011;50692;53.314;-6.300;2023-02-12T04:18:06;0.80;;;0.77;;
64367;SDS011;50692;53.314;-6.300;2023-02-12T04:21:10;1.13;;;0.70;;
64367;SDS011;50692;53.314;-6.300;2023-02-12T04:33:07;0.73;;;0.73;;
64367;SDS011;50692;53.314;-6.300;2023-02-12T04:36:00;1.50;;;0.80;;
64367;SDS011;50692;53.314;-6.300;2023-02-12T04:38:56;1.27;;;0.83;;
64367;SDS011;50692;53.314;-6.300;2023-02-12T04:41:45;1.27;;;0.70;;
64367;SDS011;50692;53.314;-6.300;2023-02-12T04:44:32;1.80;;;0.93;;
64367;SDS011;50692;53.314;-6.300;2023-02-12T04:47:21;1.23;;;0.80;;
64367;SDS011;50692;53.314;-6.300;2023-02-12T04:50:07;1.20;;;0.70;;
64367;SDS011;50692;53.314;-6.300;2023-02-12T04:52:53;1.53;;;0.70;;
64367;SDS011;50692;53.314;-6.300;2023-02-12T04:55:39;1.17;;;0.63;;
64367;SDS011;50692;53.314;-6.300;2023-02-12T04:58:25;1.17;;;0.63;;
64367;SDS011;50692;53.314;-6.300;2023-02-12T05:01:11;0.87;;;0.60;;
64367;SDS011;50692;53.314;-6.300;2023-02-12T05:03:57;0.60;;;0.60;;
64367;SDS011;50692;53.314;-6.300;2023-02-12T05:06:43;0.90;;;0.60;;
64367;SDS011;50692;53.314;-6.300;2023-02-12T05:09:29;1.40;;;0.67;;
64367;SDS011;50692;53.314;-6.300;2023-02-12T05:12:16;0.87;;;0.40;;
64367;SDS011;50692;53.314;-6.300;2023-02-12T05:15:02;1.77;;;0.73;;
64367;SDS011;50692;53.314;-6.300;2023-02-12T05:17:48;0.90;;;0.60;;
64367;SDS011;50692;53.314;-6.300;2023-02-12T05:20:34;0.43;;;0.40;;
64367;SDS011;50692;53.314;-6.300;2023-02-12T05:23:20;0.60;;;0.50;;
64367;SDS011;50692;53.314;-6.300;2023-02-12T05:26:07;1.00;;;0.60;;
64367;SDS011;50692;53.314;-6.300;2023-02-12T05:28:56;0.60;;;0.60;;
64367;SDS011;50692;53.314;-6.300;2023-02-12T05:31:42;0.57;;;0.57;;
64367;SDS011;50692;53.314;-6.300;2023-02-12T05:34:28;0.80;;;0.57;;
64367;SDS011;50692;53.314;-6.300;2023-02-12T05:37:14;1.10;;;0.70;;
64367;SDS011;50692;53.314;-6.300;2023-02-12T05:40:00;1.97;;;0.60;;
64367;SDS011;50692;53.314;-6.300;2023-02-12T05:42:48;0.90;;;0.80;;
64367;SDS011;50692;53.314;-6.300;2023-02-12T05:45:33;1.63;;;0.87;;
64367;SDS011;50692;53.314;-6.300;2023-02-12T05:48:19;1.67;;;0.70;;
64367;SDS011;50692;53.314;-6.300;2023-02-12T05:51:07;0.70;;;0.60;;
64367;SDS011;50692;53.314;-6.300;2023-02-12T05:54:05;1.30;;;0.60;;
64367;SDS011;50692;53.314;-6.300;2023-02-12T05:56:51;2.90;;;0.60;;
64367;SDS011;50692;53.314;-6.300;2023-02-12T05:59:38;1.33;;;0.60;;
64367;SDS011;50692;53.314;-6.300;2023-02-12T06:02:23;1.03;;;0.80;;
64367;SDS011;50692;53.314;-6.300;2023-02-12T06:05:09;2.40;;;0.70;;
64367;SDS011;50692;53.314;-6.300;2023-02-12T06:07:55;0.73;;;0.63;;
64367;SDS011;50692;53.314;-6.300;2023-02-12T06:10:41;1.13;;;0.70;;
64367;SDS011;50692;53.314;-6.300;2023-02-12T06:13:27;1.30;;;0.70;;
64367;SDS011;50692;53.314;-6.300;2023-02-12T06:16:17;2.40;;;0.97;;
64367;SDS011;50692;53.314;-6.300;2023-02-12T06:19:12;0.50;;;0.50;;
64367;SDS011;50692;53.314;-6.300;2023-02-12T06:21:59;1.57;;;0.63;;
64367;SDS011;50692;53.314;-6.300;2023-02-12T06:24:45;0.50;;;0.50;;
64367;SDS011;50692;53.314;-6.300;2023-02-12T06:27:30;0.60;;;0.50;;
64367;SDS011;50692;53.314;-6.300;2023-02-12T06:30:16;0.73;;;0.50;;
64367;SDS011;50692;53.314;-6.300;2023-02-12T06:33:02;1.43;;;0.70;;
64367;SDS011;50692;53.314;-6.300;2023-02-12T06:35:48;0.87;;;0.60;;
64367;SDS011;50692;53.314;-6.300;2023-02-12T06:38:34;0.40;;;0.40;;
64367;SDS011;50692;53.314;-6.300;2023-02-12T06:41:20;0.70;;;0.50;;
64367;SDS011;50692;53.314;-6.300;2023-02-12T06:44:06;1.37;;;0.50;;
64367;SDS011;50692;53.314;-6.300;2023-02-12T06:46:52;1.23;;;0.70;;
64367;SDS011;50692;53.314;-6.300;2023-02-12T06:49:38;1.13;;;0.60;;
64367;SDS011;50692;53.314;-6.300;2023-02-12T06:52:24;0.50;;;0.50;;
64367;SDS011;50692;53.314;-6.300;2023-02-12T06:55:10;1.90;;;0.70;;
64367;SDS011;50692;53.314;-6.300;2023-02-12T06:57:56;1.23;;;0.50;;
64367;SDS011;50692;53.314;-6.300;2023-02-12T07:00:41;0.50;;;0.50;;
64367;SDS011;50692;53.314;-6.300;2023-02-12T07:03:27;0.90;;;0.60;;
64367;SDS011;50692;53.314;-6.300;2023-02-12T07:06:13;0.83;;;0.50;;
64367;SDS011;50692;53.314;-6.300;2023-02-12T07:08:59;1.17;;;0.80;;
64367;SDS011;50692;53.314;-6.300;2023-02-12T07:11:45;1.43;;;0.60;;
64367;SDS011;50692;53.314;-6.300;2023-02-12T07:14:31;1.07;;;0.53;;
64367;SDS011;50692;53.314;-6.300;2023-02-12T07:17:17;2.40;;;0.60;;
64367;SDS011;50692;53.314;-6.300;2023-02-12T07:20:03;1.30;;;0.60;;
64367;SDS011;50692;53.314;-6.300;2023-02-12T07:22:50;1.70;;;0.70;;
64367;SDS011;50692;53.314;-6.300;2023-02-12T07:25:35;0.80;;;0.60;;
64367;SDS011;50692;53.314;-6.300;2023-02-12T07:28:21;0.93;;;0.60;;
64367;SDS011;50692;53.314;-6.300;2023-02-12T07:31:17;0.97;;;0.80;;
64367;SDS011;50692;53.314;-6.300;2023-02-12T07:34:04;0.47;;;0.40;;
64367;SDS011;50692;53.314;-6.300;2023-02-12T07:36:50;2.13;;;0.40;;
64367;SDS011;50692;53.314;-6.300;2023-02-12T07:39:36;0.70;;;0.50;;
64367;SDS011;50692;53.314;-6.300;2023-02-12T07:42:22;1.03;;;0.70;;
64367;SDS011;50692;53.314;-6.300;2023-02-12T07:45:08;2.27;;;0.70;;
64367;SDS011;50692;53.314;-6.300;2023-02-12T07:47:54;1.70;;;0.60;;
64367;SDS011;50692;53.314;-6.300;2023-02-12T07:50:39;1.43;;;0.60;;
64367;SDS011;50692;53.314;-6.300;2023-02-12T07:53:25;0.93;;;0.60;;
64367;SDS011;50692;53.314;-6.300;2023-02-12T07:56:12;1.90;;;0.63;;
64367;SDS011;50692;53.314;-6.300;2023-02-12T07:59:01;0.70;;;0.63;;
64367;SDS011;50692;53.314;-6.300;2023-02-12T08:01:50;0.70;;;0.70;;
64367;SDS011;50692;53.314;-6.300;2023-02-12T08:04:37;0.73;;;0.70;;
64367;SDS011;50692;53.314;-6.300;2023-02-12T08:07:23;1.50;;;0.70;;
64367;SDS011;50692;53.314;-6.300;2023-02-12T08:10:09;1.30;;;0.70;;
64367;SDS011;50692;53.314;-6.300;2023-02-12T08:12:55;2.33;;;0.90;;
64367;SDS011;50692;53.314;-6.300;2023-02-12T08:15:41;1.40;;;0.70;;
64367;SDS011;50692;53.314;-6.300;2023-02-12T08:18:27;2.80;;;0.80;;
64367;SDS011;50692;53.314;-6.300;2023-02-12T08:21:16;1.57;;;0.90;;
64367;SDS011;50692;53.314;-6.300;2023-02-12T08:24:04;2.37;;;0.83;;
64367;SDS011;50692;53.314;-6.300;2023-02-12T08:26:50;1.50;;;0.90;;
64367;SDS011;50692;53.314;-6.300;2023-02-12T08:29:36;2.13;;;0.90;;
64367;SDS011;50692;53.314;-6.300;2023-02-12T08:32:22;1.07;;;0.57;;
64367;SDS011;50692;53.314;-6.300;2023-02-12T08:35:08;3.93;;;0.93;;
64367;SDS011;50692;53.314;-6.300;2023-02-12T08:37:54;2.73;;;0.87;;
64367;SDS011;50692;53.314;-6.300;2023-02-12T08:40:39;2.17;;;0.90;;
64367;SDS011;50692;53.314;-6.300;2023-02-12T08:43:25;2.40;;;1.23;;
64367;SDS011;50692;53.314;-6.300;2023-02-12T08:46:12;2.70;;;0.80;;
64367;SDS011;50692;53.314;-6.300;2023-02-12T08:49:00;2.47;;;1.00;;
64367;SDS011;50692;53.314;-6.300;2023-02-12T08:51:50;1.55;;;0.65;;
64367;SDS011;50692;53.314;-6.300;2023-02-12T08:54:37;2.17;;;0.88;;
64367;SDS011;50692;53.314;-6.300;2023-02-12T08:57:23;3.13;;;1.37;;
64367;SDS011;50692;53.314;-6.300;2023-02-12T09:00:09;1.57;;;0.90;;
64367;SDS011;50692;53.314;-6.300;2023-02-12T09:02:55;2.13;;;1.03;;
64367;SDS011;50692;53.314;-6.300;2023-02-12T09:05:41;2.43;;;0.90;;
64367;SDS011;50692;53.314;-6.300;2023-02-12T09:08:27;1.43;;;1.00;;
64367;SDS011;50692;53.314;-6.300;2023-02-12T09:11:17;2.13;;;0.90;;
64367;SDS011;50692;53.314;-6.300;2023-02-12T09:14:05;1.27;;;0.90;;
64367;SDS011;50692;53.314;-6.300;2023-02-12T09:16:53;2.20;;;1.02;;
64367;SDS011;50692;53.314;-6.300;2023-02-12T09:19:41;1.87;;;1.03;;
64367;SDS011;50692;53.314;-6.300;2023-02-12T09:22:27;1.93;;;1.20;;
64367;SDS011;50692;53.314;-6.300;2023-02-12T09:25:13;2.10;;;1.90;;
64367;SDS011;50692;53.314;-6.300;2023-02-12T09:28:01;4.53;;;1.33;;
64367;SDS011;50692;53.314;-6.300;2023-02-12T09:30:47;2.72;;;1.20;;
64367;SDS011;50692;53.314;-6.300;2023-02-12T09:33:33;1.60;;;1.00;;
64367;SDS011;50692;53.314;-6.300;2023-02-12T09:36:19;2.27;;;1.30;;
64367;SDS011;50692;53.314;-6.300;2023-02-12T09:39:05;4.43;;;1.27;;
64367;SDS011;50692;53.314;-6.300;2023-02-12T09:45:05;2.80;;;1.20;;
64367;SDS011;50692;53.314;-6.300;2023-02-12T09:48:17;4.43;;;1.60;;
64367;SDS011;50692;53.314;-6.300;2023-02-12T09:51:25;3.70;;;1.50;;
64367;SDS011;50692;53.314;-6.300;2023-02-12T09:54:17;3.17;;;1.37;;
64367;SDS011;50692;53.314;-6.300;2023-02-12T09:57:11;4.27;;;1.70;;
64367;SDS011;50692;53.314;-6.300;2023-02-12T10:00:06;2.17;;;1.40;;
64367;SDS011;50692;53.314;-6.300;2023-02-12T10:03:10;6.30;;;1.40;;
64367;SDS011;50692;53.314;-6.300;2023-02-12T10:06:02;3.73;;;1.17;;
64367;SDS011;50692;53.314;-6.300;2023-02-12T10:21:38;2.63;;;1.50;;
64367;SDS011;50692;53.314;-6.300;2023-02-12T10:25:01;2.75;;;1.52;;
64367;SDS011;50692;53.314;-6.300;2023-02-12T10:27:59;2.97;;;1.85;;
64367;SDS011;50692;53.314;-6.300;2023-02-12T10:30:48;2.78;;;1.42;;
64367;SDS011;50692;53.314;-6.300;2023-02-12T10:36:37;2.45;;;1.38;;
64367;SDS011;50692;53.314;-6.300;2023-02-12T10:39:29;2.70;;;1.40;;
64367;SDS011;50692;53.314;-6.300;2023-02-12T10:42:32;2.55;;;1.40;;
64367;SDS011;50692;53.314;-6.300;2023-02-12T10:45:24;1.67;;;1.23;;
64367;SDS011;50692;53.314;-6.300;2023-02-12T10:48:24;3.38;;;1.10;;
64367;SDS011;50692;53.314;-6.300;2023-02-12T10:57:23;2.78;;;1.30;;
64367;SDS011;50692;53.314;-6.300;2023-02-12T11:03:19;1.58;;;1.23;;
64367;SDS011;50692;53.314;-6.300;2023-02-12T11:08:58;1.13;;;0.90;;
64367;SDS011;50692;53.314;-6.300;2023-02-12T11:11:44;2.15;;;1.10;;
64367;SDS011;50692;53.314;-6.300;2023-02-12T11:14:31;1.60;;;1.10;;
64367;SDS011;50692;53.314;-6.300;2023-02-12T11:17:29;1.50;;;0.95;;
64367;SDS011;50692;53.314;-6.300;2023-02-12T11:20:24;3.08;;;1.00;;
64367;SDS011;50692;53.314;-6.300;2023-02-12T11:23:27;3.77;;;1.37;;
64367;SDS011;50692;53.314;-6.300;2023-02-12T11:26:23;1.47;;;1.07;;
64367;SDS011;50692;53.314;-6.300;2023-02-12T11:29:19;2.05;;;1.13;;
64367;SDS011;50692;53.314;-6.300;2023-02-12T11:32:15;2.17;;;1.45;;
64367;SDS011;50692;53.314;-6.300;2023-02-12T11:35:14;1.40;;;1.30;;
64367;SDS011;50692;53.314;-6.300;2023-02-12T11:38:14;3.50;;;1.60;;
64367;SDS011;50692;53.314;-6.300;2023-02-12T11:41:20;1.88;;;1.25;;
64367;SDS011;50692;53.314;-6.300;2023-02-12T11:44:23;4.07;;;1.50;;
64367;SDS011;50692;53.314;-6.300;2023-02-12T11:47:21;4.00;;;1.70;;
64367;SDS011;50692;53.314;-6.300;2023-02-12T11:50:26;2.23;;;1.30;;
64367;SDS011;50692;53.314;-6.300;2023-02-12T11:53:24;2.00;;;1.50;;
64367;SDS011;50692;53.314;-6.300;2023-02-12T11:56:12;2.70;;;1.60;;
64367;SDS011;50692;53.314;-6.300;2023-02-12T11:59:07;4.47;;;1.97;;
64367;SDS011;50692;53.314;-6.300;2023-02-12T12:01:58;4.95;;;1.90;;
64367;SDS011;50692;53.314;-6.300;2023-02-12T12:04:49;4.27;;;2.30;;
64367;SDS011;50692;53.314;-6.300;2023-02-12T12:10:38;3.63;;;1.50;;
64367;SDS011;50692;53.314;-6.300;2023-02-12T12:13:31;2.75;;;1.48;;
64367;SDS011;50692;53.314;-6.300;2023-02-12T12:19:42;2.00;;;1.52;;
64367;SDS011;50692;53.314;-6.300;2023-02-12T12:22:58;2.17;;;1.40;;
64367;SDS011;50692;53.314;-6.300;2023-02-12T12:26:00;2.60;;;1.70;;
64367;SDS011;50692;53.314;-6.300;2023-02-12T12:28:53;2.67;;;1.23;;
64367;SDS011;50692;53.314;-6.300;2023-02-12T12:31:58;5.00;;;1.60;;
64367;SDS011;50692;53.314;-6.300;2023-02-12T12:34:47;2.88;;;1.38;;
64367;SDS011;50692;53.314;-6.300;2023-02-12T12:40:41;3.72;;;1.80;;
64367;SDS011;50692;53.314;-6.300;2023-02-12T12:43:48;2.53;;;1.90;;
64367;SDS011;50692;53.314;-6.300;2023-02-12T13:08:11;2.50;;;2.00;;
64367;SDS011;50692;53.314;-6.300;2023-02-12T13:11:08;3.28;;;2.00;;
64367;SDS011;50692;53.314;-6.300;2023-02-12T13:17:33;1.90;;;1.60;;
64367;SDS011;50692;53.314;-6.300;2023-02-12T13:20:32;4.05;;;2.05;;
64367;SDS011;50692;53.314;-6.300;2023-02-12T13:23:50;2.72;;;2.10;;
64367;SDS011;50692;53.314;-6.300;2023-02-12T13:26:44;3.88;;;2.00;;
64367;SDS011;50692;53.314;-6.300;2023-02-12T13:32:48;3.95;;;2.65;;
64367;SDS011;50692;53.314;-6.300;2023-02-12T13:35:51;5.15;;;2.45;;
64367;SDS011;50692;53.314;-6.300;2023-02-12T13:39:00;2.72;;;2.42;;
64367;SDS011;50692;53.314;-6.300;2023-02-12T13:42:13;2.67;;;2.25;;
64367;SDS011;50692;53.314;-6.300;2023-02-12T13:48:02;4.23;;;2.63;;
64367;SDS011;50692;53.314;-6.300;2023-02-12T13:50:54;3.47;;;2.25;;
64367;SDS011;50692;53.314;-6.300;2023-02-12T13:56:50;2.55;;;2.15;;
64367;SDS011;50692;53.314;-6.300;2023-02-12T13:59:37;3.67;;;1.80;;
64367;SDS011;50692;53.314;-6.300;2023-02-12T14:02:53;3.90;;;2.20;;
64367;SDS011;50692;53.314;-6.300;2023-02-12T14:05:39;4.43;;;2.00;;
64367;SDS011;50692;53.314;-6.300;2023-02-12T14:09:09;2.45;;;1.75;;
64367;SDS011;50692;53.314;-6.300;2023-02-12T14:11:47;2.72;;;1.80;;
64367;SDS011;50692;53.314;-6.300;2023-02-12T14:14:41;2.47;;;1.60;;
64367;SDS011;50692;53.314;-6.300;2023-02-12T14:26:16;3.90;;;2.03;;
64367;SDS011;50692;53.314;-6.300;2023-02-12T14:29:05;4.72;;;1.70;;
64367;SDS011;50692;53.314;-6.300;2023-02-12T14:32:31;2.28;;;1.70;;
64367;SDS011;50692;53.314;-6.300;2023-02-12T14:41:14;2.10;;;1.55;;
64367;SDS011;50692;53.314;-6.300;2023-02-12T14:47:10;3.47;;;1.63;;
64367;SDS011;50692;53.314;-6.300;2023-02-12T14:50:02;3.10;;;1.55;;
64367;SDS011;50692;53.314;-6.300;2023-02-12T14:53:15;2.30;;;1.70;;
64367;SDS011;50692;53.314;-6.300;2023-02-12T14:56:09;3.13;;;1.90;;
64367;SDS011;50692;53.314;-6.300;2023-02-12T14:58:56;3.45;;;1.70;;
64367;SDS011;50692;53.314;-6.300;2023-02-12T15:01:44;2.88;;;1.95;;
64367;SDS011;50692;53.314;-6.300;2023-02-12T15:04:33;2.92;;;1.73;;
64367;SDS011;50692;53.314;-6.300;2023-02-12T15:07:30;3.95;;;2.03;;
64367;SDS011;50692;53.314;-6.300;2023-02-12T15:10:21;3.58;;;1.92;;
64367;SDS011;50692;53.314;-6.300;2023-02-12T15:13:23;3.92;;;2.63;;
64367;SDS011;50692;53.314;-6.300;2023-02-12T15:22:35;3.15;;;1.90;;
64367;SDS011;50692;53.314;-6.300;2023-02-12T15:25:30;3.25;;;1.65;;
64367;SDS011;50692;53.314;-6.300;2023-02-12T15:28:22;3.65;;;1.52;;
64367;SDS011;50692;53.314;-6.300;2023-02-12T15:31:14;2.15;;;1.55;;
64367;SDS011;50692;53.314;-6.300;2023-02-12T15:34:02;4.57;;;2.10;;
64367;SDS011;50692;53.314;-6.300;2023-02-12T15:36:48;1.65;;;1.50;;
64367;SDS011;50692;53.314;-6.300;2023-02-12T15:39:38;4.00;;;1.70;;
64367;SDS011;50692;53.314;-6.300;2023-02-12T15:42:31;2.67;;;1.70;;
64367;SDS011;50692;53.314;-6.300;2023-02-12T15:45:21;3.55;;;1.30;;
64367;SDS011;50692;53.314;-6.300;2023-02-12T15:50:54;2.40;;;1.52;;
64367;SDS011;50692;53.314;-6.300;2023-02-12T15:53:51;2.17;;;1.30;;
64367;SDS011;50692;53.314;-6.300;2023-02-12T15:56:38;3.88;;;1.30;;
64367;SDS011;50692;53.314;-6.300;2023-02-12T15:59:26;1.83;;;1.42;;
64367;SDS011;50692;53.314;-6.300;2023-02-12T16:02:21;6.00;;;1.50;;
64367;SDS011;50692;53.314;-6.300;2023-02-12T16:05:13;4.13;;;1.23;;
64367;SDS011;50692;53.314;-6.300;2023-02-12T16:08:01;3.83;;;1.42;;
64367;SDS011;50692;53.314;-6.300;2023-02-12T16:10:48;1.90;;;1.20;;
64367;SDS011;50692;53.314;-6.300;2023-02-12T16:13:36;1.80;;;1.10;;
64367;SDS011;50692;53.314;-6.300;2023-02-12T16:19:28;1.70;;;1.10;;
64367;SDS011;50692;53.314;-6.300;2023-02-12T16:22:25;2.78;;;1.40;;
64367;SDS011;50692;53.314;-6.300;2023-02-12T16:25:20;2.33;;;1.35;;
64367;SDS011;50692;53.314;-6.300;2023-02-12T16:28:16;2.83;;;1.15;;
64367;SDS011;50692;53.314;-6.300;2023-02-12T16:31:09;1.98;;;0.93;;
64367;SDS011;50692;53.314;-6.300;2023-02-12T16:33:58;3.38;;;1.60;;
64367;SDS011;50692;53.314;-6.300;2023-02-12T16:36:45;1.92;;;1.30;;
64367;SDS011;50692;53.314;-6.300;2023-02-12T16:42:44;4.53;;;2.90;;
64367;SDS011;50692;53.314;-6.300;2023-02-12T16:45:40;3.70;;;2.23;;
64367;SDS011;50692;53.314;-6.300;2023-02-12T16:48:27;3.13;;;2.10;;
64367;SDS011;50692;53.314;-6.300;2023-02-12T16:51:23;2.23;;;1.90;;
64367;SDS011;50692;53.314;-6.300;2023-02-12T16:54:29;4.30;;;1.93;;
64367;SDS011;50692;53.314;-6.300;2023-02-12T16:57:17;3.70;;;1.70;;
64367;SDS011;50692;53.314;-6.300;2023-02-12T17:00:07;3.30;;;2.10;;
64367;SDS011;50692;53.314;-6.300;2023-02-12T17:02:54;3.63;;;2.30;;
64367;SDS011;50692;53.314;-6.300;2023-02-12T17:05:40;5.03;;;2.30;;
64367;SDS011;50692;53.314;-6.300;2023-02-12T17:08:29;4.75;;;2.50;;
64367;SDS011;50692;53.314;-6.300;2023-02-12T17:11:15;3.80;;;2.10;;
64367;SDS011;50692;53.314;-6.300;2023-02-12T17:14:02;3.87;;;2.20;;
64367;SDS011;50692;53.314;-6.300;2023-02-12T17:16:48;2.67;;;1.93;;
64367;SDS011;50692;53.314;-6.300;2023-02-12T17:19:33;2.97;;;2.00;;
64367;SDS011;50692;53.314;-6.300;2023-02-12T17:22:21;5.07;;;2.03;;
64367;SDS011;50692;53.314;-6.300;2023-02-12T17:25:11;3.40;;;2.20;;
64367;SDS011;50692;53.314;-6.300;2023-02-12T17:27:59;5.20;;;2.50;;
64367;SDS011;50692;53.314;-6.300;2023-02-12T17:30:45;3.50;;;2.50;;
64367;SDS011;50692;53.314;-6.300;2023-02-12T17:33:31;5.00;;;3.87;;
64367;SDS011;50692;53.314;-6.300;2023-02-12T17:36:17;6.33;;;3.93;;
64367;SDS011;50692;53.314;-6.300;2023-02-12T17:39:03;6.90;;;4.43;;
64367;SDS011;50692;53.314;-6.300;2023-02-12T17:41:51;7.50;;;4.07;;
64367;SDS011;50692;53.314;-6.300;2023-02-12T17:44:36;5.63;;;4.10;;
64367;SDS011;50692;53.314;-6.300;2023-02-12T17:47:24;7.63;;;4.10;;
64367;SDS011;50692;53.314;-6.300;2023-02-12T17:50:11;6.63;;;4.83;;
64367;SDS011;50692;53.314;-6.300;2023-02-12T17:52:58;4.77;;;3.70;;
64367;SDS011;50692;53.314;-6.300;2023-02-12T17:55:44;7.30;;;3.77;;
64367;SDS011;50692;53.314;-6.300;2023-02-12T17:58:30;7.23;;;4.30;;
64367;SDS011;50692;53.314;-6.300;2023-02-12T18:01:17;7.53;;;4.07;;
64367;SDS011;50692;53.314;-6.300;2023-02-12T18:04:05;5.23;;;3.60;;
64367;SDS011;50692;53.314;-6.300;2023-02-12T18:06:51;5.37;;;3.97;;
64367;SDS011;50692;53.314;-6.300;2023-02-12T18:09:36;6.80;;;4.13;;
64367;SDS011;50692;53.314;-6.300;2023-02-12T18:12:23;4.37;;;3.07;;
64367;SDS011;50692;53.314;-6.300;2023-02-12T18:15:09;7.20;;;3.70;;
64367;SDS011;50692;53.314;-6.300;2023-02-12T18:17:55;5.33;;;3.60;;
64367;SDS011;50692;53.314;-6.300;2023-02-12T18:20:41;4.73;;;3.50;;
64367;SDS011;50692;53.314;-6.300;2023-02-12T18:23:27;6.03;;;3.93;;
64367;SDS011;50692;53.314;-6.300;2023-02-12T18:26:14;4.93;;;4.13;;
64367;SDS011;50692;53.314;-6.300;2023-02-12T18:29:02;5.73;;;3.77;;
64367;SDS011;50692;53.314;-6.300;2023-02-12T18:31:47;5.43;;;3.77;;
64367;SDS011;50692;53.314;-6.300;2023-02-12T18:34:33;4.50;;;2.70;;
64367;SDS011;50692;53.314;-6.300;2023-02-12T18:37:19;3.73;;;3.33;;
64367;SDS011;50692;53.314;-6.300;2023-02-12T18:40:05;7.37;;;3.40;;
64367;SDS011;50692;53.314;-6.300;2023-02-12T18:42:52;7.40;;;4.53;;
64367;SDS011;50692;53.314;-6.300;2023-02-12T18:45:38;6.83;;;5.80;;
64367;SDS011;50692;53.314;-6.300;2023-02-12T18:48:24;5.63;;;4.13;;
64367;SDS011;50692;53.314;-6.300;2023-02-12T18:51:12;4.93;;;3.13;;
64367;SDS011;50692;53.314;-6.300;2023-02-12T18:54:00;4.50;;;3.70;;
64367;SDS011;50692;53.314;-6.300;2023-02-12T18:56:49;13.50;;;8.07;;
64367;SDS011;50692;53.314;-6.300;2023-02-12T18:59:36;5.70;;;4.10;;
64367;SDS011;50692;53.314;-6.300;2023-02-12T19:02:22;4.40;;;3.20;;
64367;SDS011;50692;53.314;-6.300;2023-02-12T19:05:07;6.33;;;4.40;;
64367;SDS011;50692;53.314;-6.300;2023-02-12T19:07:53;7.37;;;3.87;;
64367;SDS011;50692;53.314;-6.300;2023-02-12T19:10:40;7.17;;;3.77;;
64367;SDS011;50692;53.314;-6.300;2023-02-12T19:13:26;6.60;;;3.87;;
64367;SDS011;50692;53.314;-6.300;2023-02-12T19:16:13;7.57;;;4.20;;
64367;SDS011;50692;53.314;-6.300;2023-02-12T19:19:00;8.27;;;4.73;;